createdAt,value
2018-11-23T00:00:26.366Z,26.27
2018-11-23T00:02:55.636Z,26.67
2018-11-23T00:05:24.228Z,24.47
2018-11-23T00:07:53.406Z,27.93
2018-11-23T00:10:23.248Z,25.37
2018-11-23T00:12:51.796Z,26.40
2018-11-23T00:15:21.443Z,26.40
2018-11-23T00:17:49.971Z,24.47
2018-11-23T00:20:19.896Z,28.50
2018-11-23T00:22:48.597Z,24.50
2018-11-23T00:25:18.495Z,25.97
2018-11-23T00:27:47.023Z,26.17
2018-11-23T00:30:19.564Z,24.60
2018-11-23T00:32:48.780Z,25.50
2018-11-23T00:35:19.076Z,24.63
2018-11-23T00:37:48.223Z,24.20
2018-11-23T00:40:22.112Z,26.03
2018-11-23T00:42:51.063Z,26.77
2018-11-23T00:45:19.629Z,26.87
2018-11-23T00:47:48.795Z,24.80
2018-11-23T00:50:18.545Z,25.53
2018-11-23T00:52:47.436Z,25.40
2018-11-23T00:55:17.311Z,26.90
2018-11-23T00:57:45.799Z,28.00
2018-11-23T01:00:18.202Z,26.90
2018-11-23T01:02:46.970Z,27.83
2018-11-23T01:05:16.946Z,26.93
2018-11-23T01:07:46.046Z,27.50
2018-11-23T01:10:16.125Z,27.70
2018-11-23T01:12:46.076Z,28.13
2018-11-23T01:15:14.713Z,26.20
2018-11-23T01:17:43.548Z,25.70
2018-11-23T01:20:15.052Z,24.73
2018-11-23T01:22:43.680Z,28.33
2018-11-23T01:25:13.498Z,25.77
2018-11-23T01:27:43.083Z,26.00
2018-11-23T01:30:20.219Z,25.07
2018-11-23T01:32:49.006Z,27.10
2018-11-23T01:35:17.580Z,24.70
2018-11-23T01:37:46.094Z,29.60
2018-11-23T01:40:17.387Z,28.60
2018-11-23T01:42:46.315Z,27.40
2018-11-23T01:45:15.411Z,26.67
2018-11-23T01:47:44.244Z,27.20
2018-11-23T01:50:16.367Z,26.20
2018-11-23T01:52:46.185Z,27.07
2018-11-23T01:55:15.315Z,25.90
2018-11-23T01:57:44.216Z,26.20
2018-11-23T02:00:14.866Z,25.70
2018-11-23T02:02:43.703Z,26.90
2018-11-23T02:05:12.374Z,25.80
2018-11-23T02:07:41.005Z,25.30
2018-11-23T02:10:10.797Z,25.20
2018-11-23T02:12:39.350Z,26.27
2018-11-23T02:15:10.881Z,27.30
2018-11-23T02:17:39.447Z,28.57
2018-11-23T02:20:09.792Z,23.60
2018-11-23T02:22:38.315Z,24.67
2018-11-23T02:25:07.115Z,25.93
2018-11-23T02:27:35.803Z,26.33
2018-11-23T02:30:05.310Z,28.70
2018-11-23T02:32:33.862Z,27.40
2018-11-23T02:35:02.396Z,28.53
2018-11-23T02:37:30.964Z,25.60
2018-11-23T02:39:59.566Z,27.07
2018-11-23T02:42:28.055Z,25.87
2018-11-23T02:44:56.645Z,27.73
2018-11-23T02:47:25.155Z,26.73
2018-11-23T02:49:53.719Z,28.13
2018-11-23T02:52:22.357Z,28.37
2018-11-23T02:54:50.886Z,26.83
2018-11-23T02:57:19.497Z,26.27
2018-11-23T02:59:48.011Z,26.97
2018-11-23T03:02:16.544Z,26.20
2018-11-23T03:04:45.172Z,26.60
2018-11-23T03:07:13.684Z,26.80
2018-11-23T03:09:42.592Z,25.60
2018-11-23T03:12:11.229Z,24.63
2018-11-23T03:14:39.823Z,26.63
2018-11-23T03:17:08.307Z,24.60
2018-11-23T03:19:37.176Z,25.27
2018-11-23T03:22:05.884Z,26.83
2018-11-23T03:24:34.424Z,26.50
2018-11-23T03:27:03.084Z,25.00
2018-11-23T03:29:31.796Z,26.47
2018-11-23T03:32:00.349Z,26.27
2018-11-23T03:34:28.905Z,26.20
2018-11-23T03:36:57.435Z,24.73
2018-11-23T03:39:25.950Z,24.97
2018-11-23T03:41:54.475Z,25.13
2018-11-23T03:44:22.954Z,26.57
2018-11-23T03:46:51.513Z,26.80
2018-11-23T03:49:20.140Z,26.60
2018-11-23T03:51:48.684Z,26.70
2018-11-23T03:54:17.323Z,24.60
2018-11-23T03:56:45.833Z,24.87
2018-11-23T03:59:14.428Z,27.13
2018-11-23T04:01:42.961Z,25.57
2018-11-23T04:04:11.485Z,25.00
2018-11-23T04:06:40.179Z,25.60
2018-11-23T04:09:09.361Z,28.80
2018-11-23T04:11:38.246Z,26.33
2018-11-23T04:14:06.812Z,25.83
2018-11-23T04:16:35.340Z,24.80
2018-11-23T04:19:03.869Z,26.80
2018-11-23T04:21:32.533Z,24.33
2018-11-23T04:24:01.104Z,28.60
2018-11-23T04:26:29.652Z,25.00
2018-11-23T04:28:58.258Z,25.97
2018-11-23T04:31:26.898Z,27.43
2018-11-23T04:33:55.417Z,26.23
2018-11-23T04:36:23.990Z,26.60
2018-11-23T04:38:52.539Z,26.20
2018-11-23T04:41:21.055Z,24.57
2018-11-23T04:43:49.840Z,26.17
2018-11-23T04:46:18.400Z,24.30
2018-11-23T04:48:47.164Z,24.07
2018-11-23T04:51:15.715Z,22.40
2018-11-23T04:53:44.306Z,25.47
2018-11-23T04:56:12.953Z,23.67
2018-11-23T04:58:41.476Z,23.43
2018-11-23T05:01:10.014Z,26.40
2018-11-23T05:03:38.733Z,23.87
2018-11-23T05:06:07.503Z,25.80
2018-11-23T05:08:36.015Z,23.80
2018-11-23T05:11:04.595Z,24.20
2018-11-23T05:13:33.164Z,23.93
2018-11-23T05:16:01.739Z,24.03
2018-11-23T05:18:30.395Z,24.70
2018-11-23T05:20:59.018Z,22.50
2018-11-23T05:23:27.610Z,26.63
2018-11-23T05:25:56.210Z,21.13
2018-11-23T05:28:24.783Z,22.77
2018-11-23T05:30:53.442Z,23.33
2018-11-23T05:33:22.036Z,26.00
2018-11-23T05:35:51.012Z,23.20
2018-11-23T05:38:19.544Z,21.50
2018-11-23T05:40:48.055Z,24.60
2018-11-23T05:43:16.711Z,24.53
2018-11-23T05:45:45.242Z,23.77
2018-11-23T05:48:13.740Z,24.20
2018-11-23T05:50:42.413Z,23.40
2018-11-23T05:53:11.025Z,24.90
2018-11-23T05:55:39.543Z,23.33
2018-11-23T05:58:08.057Z,23.63
2018-11-23T06:00:36.799Z,24.77
2018-11-23T06:03:05.501Z,24.13
2018-11-23T06:05:34.050Z,25.10
2018-11-23T06:08:02.716Z,25.70
2018-11-23T06:10:31.337Z,26.10
2018-11-23T06:12:59.852Z,23.50
2018-11-23T06:15:28.422Z,26.10
2018-11-23T06:17:57.033Z,22.03
2018-11-23T06:20:26.512Z,25.73
2018-11-23T06:22:55.940Z,22.27
2018-11-23T06:25:40.582Z,25.77
2018-11-23T06:28:09.166Z,25.77
2018-11-23T06:30:37.754Z,25.57
2018-11-23T06:33:20.461Z,28.60
2018-11-23T06:35:49.016Z,27.57
2018-11-23T06:38:18.066Z,25.53
2018-11-23T06:40:46.616Z,29.57
2018-11-23T06:43:15.196Z,27.37
2018-11-23T06:45:44.578Z,29.87
2018-11-23T06:48:13.149Z,28.90
2018-11-23T06:50:41.711Z,31.30
2018-11-23T06:53:10.339Z,28.50
2018-11-23T06:55:38.888Z,26.60
2018-11-23T06:58:07.595Z,28.17
2018-11-23T07:00:36.101Z,25.37
2018-11-23T07:03:04.672Z,24.10
2018-11-23T07:05:33.235Z,25.17
2018-11-23T07:08:02.643Z,25.67
2018-11-23T07:10:31.236Z,25.47
2018-11-23T07:12:59.789Z,25.60
2018-11-23T07:15:28.356Z,26.87
2018-11-23T07:17:57.217Z,26.23
2018-11-23T07:20:25.755Z,25.80
2018-11-23T07:22:54.606Z,27.90
2018-11-23T07:25:23.118Z,25.87
2018-11-23T07:27:51.757Z,25.97
2018-11-23T07:30:21.814Z,25.73
2018-11-23T07:32:50.372Z,26.10
2018-11-23T07:35:18.911Z,28.17
2018-11-23T07:37:47.499Z,25.30
2018-11-23T07:40:30.852Z,25.40
2018-11-23T07:42:59.353Z,26.70
2018-11-23T07:45:28.016Z,25.57
2018-11-23T07:47:56.564Z,26.30
2018-11-23T07:50:25.051Z,25.90
2018-11-23T07:52:53.726Z,25.30
2018-11-23T07:55:22.282Z,26.60
2018-11-23T07:57:50.893Z,26.57
2018-11-23T08:00:20.784Z,24.53
2018-11-23T08:02:49.745Z,25.83
2018-11-23T08:05:19.104Z,25.10
2018-11-23T08:07:47.673Z,27.40
2018-11-23T08:10:15.652Z,26.53
2018-11-23T08:12:45.408Z,27.80
2018-11-23T08:15:17.194Z,26.53
2018-11-23T08:17:46.400Z,24.77
2018-11-23T08:20:16.476Z,27.30
2018-11-23T08:22:45.098Z,25.90
2018-11-23T08:25:14.817Z,27.47
2018-11-23T08:27:44.180Z,27.13
2018-11-23T08:30:20.403Z,27.57
2018-11-23T08:32:49.050Z,27.60
2018-11-23T08:35:17.643Z,24.83
2018-11-23T08:37:46.262Z,26.57
2018-11-23T08:40:18.674Z,28.50
2018-11-23T08:42:48.210Z,25.53
2018-11-23T08:45:18.184Z,26.47
2018-11-23T08:47:46.703Z,27.00
2018-11-23T08:50:18.122Z,27.30
2018-11-23T08:52:46.679Z,26.47
2018-11-23T08:55:16.190Z,27.80
2018-11-23T08:57:44.736Z,27.60
2018-11-23T09:00:18.416Z,26.47
2018-11-23T09:02:48.868Z,25.80
2018-11-23T09:05:17.913Z,27.63
2018-11-23T09:07:47.406Z,27.47
2018-11-23T09:10:18.055Z,26.57
2018-11-23T09:12:49.382Z,25.43
2018-11-23T09:15:17.943Z,26.40
2018-11-23T09:17:46.706Z,25.70
2018-11-23T09:20:16.043Z,28.63
2018-11-23T09:22:44.597Z,28.53
2018-11-23T09:25:16.545Z,27.37
2018-11-23T09:27:45.211Z,28.20
2018-11-23T09:30:16.399Z,27.40
2018-11-23T09:32:46.120Z,25.93
2018-11-23T09:35:14.656Z,25.90
2018-11-23T09:37:43.437Z,26.87
2018-11-23T09:40:14.509Z,25.40
2018-11-23T09:42:43.760Z,23.83
2018-11-23T09:45:14.687Z,28.63
2018-11-23T09:47:44.078Z,26.10
2018-11-23T09:50:14.082Z,26.77
2018-11-23T09:52:42.924Z,28.00
2018-11-23T09:55:12.034Z,26.43
2018-11-23T09:57:40.991Z,25.17
2018-11-23T10:00:14.031Z,26.80
2018-11-23T10:02:42.902Z,26.10
2018-11-23T10:05:12.258Z,27.90
2018-11-23T10:07:41.353Z,27.33
2018-11-23T10:10:11.416Z,26.47
2018-11-23T10:12:40.512Z,23.60
2018-11-23T10:15:10.519Z,27.30
2018-11-23T10:17:39.320Z,26.50
2018-11-23T10:20:10.229Z,26.63
2018-11-23T10:22:38.796Z,26.37
2018-11-23T10:25:08.705Z,24.90
2018-11-23T10:27:37.360Z,22.90
2018-11-23T10:30:06.572Z,24.53
2018-11-23T10:32:35.138Z,24.30
2018-11-23T10:35:03.815Z,23.73
2018-11-23T10:37:32.405Z,24.63
2018-11-23T10:40:00.971Z,26.10
2018-11-23T10:42:29.504Z,25.00
2018-11-23T10:44:57.994Z,24.40
2018-11-23T10:47:26.709Z,25.90
2018-11-23T10:49:55.231Z,26.23
2018-11-23T10:52:23.809Z,25.17
2018-11-23T10:54:52.306Z,24.07
2018-11-23T10:57:20.840Z,24.77
2018-11-23T10:59:49.403Z,23.30
2018-11-23T11:02:23.005Z,25.37
2018-11-23T11:04:52.817Z,24.43
2018-11-23T11:07:21.339Z,24.20
2018-11-23T11:09:49.885Z,24.77
2018-11-23T11:12:18.576Z,25.13
2018-11-23T11:14:47.121Z,24.70
2018-11-23T11:17:15.621Z,23.47
2018-11-23T11:19:44.177Z,38.40
2018-11-23T11:22:12.716Z,24.10
2018-11-23T11:24:41.292Z,25.73
2018-11-23T11:27:09.819Z,22.90
2018-11-23T11:29:38.385Z,24.40
2018-11-23T11:32:06.996Z,24.77
2018-11-23T11:34:35.627Z,24.87
2018-11-23T11:37:04.129Z,22.80
2018-11-23T11:39:32.707Z,23.80
2018-11-23T11:42:01.325Z,23.20
2018-11-23T11:44:29.844Z,23.30
2018-11-23T11:46:58.457Z,23.63
2018-11-23T11:49:27.033Z,25.83
2018-11-23T11:51:55.593Z,24.83
2018-11-23T11:54:24.300Z,25.00
2018-11-23T11:56:52.827Z,23.87
2018-11-23T11:59:21.694Z,24.33
2018-11-23T12:01:50.302Z,24.40
2018-11-23T12:04:18.862Z,22.13
2018-11-23T12:06:47.403Z,21.93
2018-11-23T12:09:15.955Z,27.53
2018-11-23T12:11:44.496Z,25.50
2018-11-23T12:14:13.043Z,24.73
2018-11-23T12:16:41.643Z,22.03
2018-11-23T12:19:10.158Z,23.87
2018-11-23T12:21:38.717Z,21.53
2018-11-23T12:24:07.326Z,23.50
2018-11-23T12:26:35.842Z,22.90
2018-11-23T12:29:04.513Z,24.00
2018-11-23T12:31:33.107Z,23.67
2018-11-23T12:34:01.661Z,25.03
2018-11-23T12:36:30.316Z,22.80
2018-11-23T12:38:58.891Z,23.97
2018-11-23T12:41:27.454Z,23.13
2018-11-23T12:43:56.020Z,23.90
2018-11-23T12:46:24.555Z,23.60
2018-11-23T12:48:53.076Z,21.77
2018-11-23T12:51:21.807Z,24.40
2018-11-23T12:53:50.381Z,22.67
2018-11-23T12:56:18.963Z,23.07
2018-11-23T12:58:47.540Z,22.37
2018-11-23T13:01:16.165Z,22.47
2018-11-23T13:03:44.727Z,22.97
2018-11-23T13:06:13.303Z,21.77
2018-11-23T13:08:41.891Z,21.77
2018-11-23T13:11:10.491Z,21.30
2018-11-23T13:13:39.200Z,23.80
2018-11-23T13:16:07.772Z,21.40
2018-11-23T13:18:36.305Z,22.13
2018-11-23T13:21:05.259Z,22.80
2018-11-23T13:23:33.850Z,22.37
2018-11-23T13:26:02.429Z,20.00
2018-11-23T13:28:30.970Z,23.27
2018-11-23T13:31:00.264Z,23.30
2018-11-23T13:33:32.663Z,21.23
2018-11-23T13:36:01.251Z,24.63
2018-11-23T13:38:29.801Z,21.30
2018-11-23T13:40:58.404Z,23.03
2018-11-23T13:43:26.933Z,22.53
2018-11-23T13:45:55.501Z,23.40
2018-11-23T13:48:24.039Z,22.97
2018-11-23T13:50:52.927Z,21.37
2018-11-23T13:53:21.497Z,24.03
2018-11-23T13:55:50.051Z,23.23
2018-11-23T13:58:18.612Z,22.60
2018-11-23T14:00:47.206Z,22.23
2018-11-23T14:03:15.732Z,24.67
2018-11-23T14:05:44.297Z,24.20
2018-11-23T14:08:12.820Z,23.70
2018-11-23T14:10:41.365Z,22.10
2018-11-23T14:13:11.485Z,24.47
2018-11-23T14:15:38.400Z,23.33
2018-11-23T14:18:06.987Z,23.00
2018-11-23T14:20:35.606Z,23.13
2018-11-23T14:23:04.262Z,22.23
2018-11-23T14:25:32.886Z,23.33
2018-11-23T14:28:01.538Z,22.90
2018-11-23T14:30:32.553Z,22.67
2018-11-23T14:33:01.785Z,20.70
2018-11-23T14:35:31.439Z,22.27
2018-11-23T14:38:00.657Z,21.97
2018-11-23T14:40:29.203Z,20.53
2018-11-23T14:42:58.210Z,24.23
2018-11-23T14:45:31.022Z,22.57
2018-11-23T14:48:01.859Z,22.87
2018-11-23T14:50:31.635Z,23.43
2018-11-23T14:53:00.663Z,21.93
2018-11-23T14:55:29.685Z,22.03
2018-11-23T14:57:58.518Z,22.00
2018-11-23T15:00:29.606Z,23.20
2018-11-23T15:02:59.190Z,24.03
2018-11-23T15:05:27.778Z,21.90
2018-11-23T15:07:56.502Z,22.57
2018-11-23T15:10:26.500Z,25.40
2018-11-23T15:12:56.546Z,23.60
2018-11-23T15:15:26.543Z,23.30
2018-11-23T15:17:55.742Z,24.37
2018-11-23T15:20:28.900Z,24.70
2018-11-23T15:23:07.185Z,25.50
2018-11-23T15:25:35.750Z,23.07
2018-11-23T15:28:04.397Z,23.90
2018-11-23T15:30:35.116Z,23.20
2018-11-23T15:33:04.962Z,23.40
2018-11-23T15:35:34.992Z,26.17
2018-11-23T15:38:10.003Z,25.80
2018-11-23T15:40:33.233Z,24.10
2018-11-23T15:43:03.292Z,23.10
2018-11-23T15:45:32.779Z,21.77
2018-11-23T15:48:01.985Z,23.87
2018-11-23T15:50:33.924Z,26.47
2018-11-23T15:53:02.602Z,23.50
2018-11-23T15:55:32.824Z,26.83
2018-11-23T15:58:03.008Z,22.77
2018-11-23T16:00:33.873Z,25.93
2018-11-23T16:03:02.487Z,25.80
2018-11-23T16:05:31.059Z,25.10
2018-11-23T16:08:01.416Z,24.37
2018-11-23T16:10:33.169Z,26.00
2018-11-23T16:13:06.788Z,23.63
2018-11-23T16:15:32.083Z,24.60
2018-11-23T16:18:01.300Z,25.13
2018-11-23T16:20:33.299Z,24.67
2018-11-23T16:23:03.421Z,26.47
2018-11-23T16:25:31.979Z,25.77
2018-11-23T16:28:02.480Z,25.63
2018-11-23T16:30:32.919Z,26.70
2018-11-23T16:33:02.685Z,25.23
2018-11-23T16:35:32.586Z,25.97
2018-11-23T16:38:02.651Z,23.43
2018-11-23T16:40:32.758Z,27.07
2018-11-23T16:43:01.935Z,27.40
2018-11-23T16:45:31.850Z,27.10
2018-11-23T16:48:01.601Z,29.17
2018-11-23T16:50:30.663Z,27.20
2018-11-23T16:52:59.297Z,28.07
2018-11-23T16:55:28.243Z,31.83
2018-11-23T16:57:58.036Z,32.70
2018-11-23T17:00:28.812Z,27.30
2018-11-23T17:02:58.591Z,27.40
2018-11-23T17:05:31.629Z,28.47
2018-11-23T17:08:00.181Z,27.27
2018-11-23T17:10:28.757Z,29.07
2018-11-23T17:12:57.280Z,27.50
2018-11-23T17:15:27.076Z,29.23
2018-11-23T17:17:55.578Z,28.00
2018-11-23T17:20:25.388Z,27.47
2018-11-23T17:22:55.032Z,30.20
2018-11-23T17:25:24.465Z,28.90
2018-11-23T17:27:53.818Z,28.13
2018-11-23T17:30:30.783Z,31.77
2018-11-23T17:32:59.376Z,30.17
2018-11-23T17:35:28.185Z,31.00
2018-11-23T17:37:56.894Z,29.60
2018-11-23T17:40:27.508Z,29.80
2018-11-23T17:42:56.473Z,29.97
2018-11-23T17:45:26.994Z,30.43
2018-11-23T17:47:55.957Z,30.00
2018-11-23T17:50:29.425Z,28.20
2018-11-23T17:52:58.663Z,29.50
2018-11-23T17:55:27.721Z,30.97
2018-11-23T17:57:56.743Z,28.60
2018-11-23T18:00:28.442Z,25.97
2018-11-23T18:02:57.736Z,29.63
2018-11-23T18:05:26.983Z,32.57
2018-11-23T18:07:55.692Z,28.90
2018-11-23T18:10:25.473Z,29.77
2018-11-23T18:12:54.747Z,30.33
2018-11-23T18:15:24.632Z,31.20
2018-11-23T18:17:54.121Z,26.50
2018-11-23T18:20:23.640Z,30.90
2018-11-23T18:22:53.346Z,30.67
2018-11-23T18:25:24.763Z,26.67
2018-11-23T18:27:58.424Z,28.73
2018-11-23T18:30:27.190Z,30.50
2018-11-23T18:32:55.747Z,29.83
2018-11-23T18:35:24.323Z,28.17
2018-11-23T18:37:52.827Z,30.40
2018-11-23T18:40:21.367Z,27.77
2018-11-23T18:42:49.908Z,29.67
2018-11-23T18:45:18.469Z,29.80
2018-11-23T18:47:47.016Z,28.47
2018-11-23T18:50:16.587Z,29.03
2018-11-23T18:52:45.126Z,28.67
2018-11-23T18:55:18.259Z,29.57
2018-11-23T18:57:43.129Z,30.63
2018-11-23T19:00:18.339Z,29.40
2018-11-23T19:02:47.731Z,31.17
2018-11-23T19:05:18.853Z,27.90
2018-11-23T19:07:47.432Z,29.33
2018-11-23T19:10:16.003Z,28.63
2018-11-23T19:12:44.616Z,32.07
2018-11-23T19:15:25.072Z,31.67
2018-11-23T19:17:48.600Z,33.77
2018-11-23T19:20:19.385Z,33.30
2018-11-23T19:22:49.176Z,34.10
2018-11-23T19:25:17.773Z,34.60
2018-11-23T19:27:46.345Z,34.40
2018-11-23T19:30:16.133Z,32.07
2018-11-23T19:32:44.675Z,33.30
2018-11-23T19:35:13.335Z,34.10
2018-11-23T19:37:41.845Z,34.10
2018-11-23T19:40:12.589Z,34.30
2018-11-23T19:42:41.111Z,30.30
2018-11-23T19:45:12.166Z,32.37
2018-11-23T19:47:40.725Z,33.90
2018-11-23T19:50:10.958Z,35.17
2018-11-23T19:52:39.735Z,32.67
2018-11-23T19:55:08.807Z,31.40
2018-11-23T19:57:37.422Z,34.43
2018-11-23T20:00:11.315Z,35.77
2018-11-23T20:02:40.176Z,34.70
2018-11-23T20:05:09.204Z,32.13
2018-11-23T20:07:37.883Z,32.70
2018-11-23T20:10:10.748Z,33.77
2018-11-23T20:12:39.763Z,35.27
2018-11-23T20:15:10.680Z,33.90
2018-11-23T20:17:41.393Z,34.60
2018-11-23T20:20:09.507Z,36.63
2018-11-23T20:22:38.347Z,37.60
2018-11-23T20:25:10.352Z,33.97
2018-11-23T20:27:39.217Z,31.17
2018-11-23T20:30:13.880Z,31.90
2018-11-23T20:32:42.658Z,30.33
2018-11-23T20:35:12.352Z,30.67
2018-11-23T20:37:40.959Z,30.43
2018-11-23T20:40:12.899Z,29.57
2018-11-23T20:42:41.610Z,29.90
2018-11-23T20:45:11.243Z,31.37
2018-11-23T20:47:39.830Z,28.47
2018-11-23T20:50:10.762Z,30.73
2018-11-23T20:52:39.439Z,27.37
2018-11-23T20:55:10.503Z,29.17
2018-11-23T20:57:39.090Z,29.17
2018-11-23T21:00:10.814Z,31.43
2018-11-23T21:02:39.450Z,28.93
2018-11-23T21:05:09.436Z,28.90
2018-11-23T21:07:38.196Z,28.00
2018-11-23T21:10:19.647Z,29.57
2018-11-23T21:12:41.551Z,30.00
2018-11-23T21:15:30.865Z,31.93
2018-11-23T21:18:01.609Z,33.40
2018-11-23T21:20:29.496Z,34.70
2018-11-23T21:22:58.018Z,33.50
2018-11-23T21:25:26.581Z,38.43
2018-11-23T21:27:55.186Z,33.20
2018-11-23T21:30:24.757Z,32.83
2018-11-23T21:32:54.737Z,31.40
2018-11-23T21:35:23.558Z,33.90
2018-11-23T21:37:52.139Z,32.30
2018-11-23T21:40:20.732Z,31.47
2018-11-23T21:42:49.333Z,31.53
2018-11-23T21:45:19.650Z,33.40
2018-11-23T21:47:48.250Z,34.30
2018-11-23T21:50:25.165Z,31.30
2018-11-23T21:52:49.788Z,31.10
2018-11-23T21:55:20.823Z,31.40
2018-11-23T21:57:49.718Z,31.37
2018-11-23T22:00:18.350Z,35.17
2018-11-23T22:02:50.580Z,31.63
2018-11-23T22:05:19.193Z,30.87
2018-11-23T22:07:47.752Z,35.60
2018-11-23T22:10:18.946Z,31.90
2018-11-23T22:12:47.540Z,32.90
2018-11-23T22:15:19.277Z,32.07
2018-11-23T22:17:48.394Z,30.80
2018-11-23T22:20:18.609Z,29.80
2018-11-23T22:22:47.173Z,30.90
2018-11-23T22:25:17.513Z,30.83
2018-11-23T22:27:46.364Z,30.33
2018-11-23T22:30:17.133Z,32.80
2018-11-23T22:32:45.825Z,28.90
2018-11-23T22:35:14.649Z,30.97
2018-11-23T22:37:43.257Z,31.70
2018-11-23T22:40:13.178Z,30.30
2018-11-23T22:42:42.843Z,33.17
2018-11-23T22:45:12.794Z,32.53
2018-11-23T22:47:41.381Z,33.90
2018-11-23T22:50:14.393Z,31.70
2018-11-23T22:52:42.908Z,33.50
2018-11-23T22:55:12.519Z,30.93
2018-11-23T22:57:41.074Z,30.87
2018-11-23T23:00:18.795Z,32.10
2018-11-23T23:02:49.897Z,33.00
2018-11-23T23:05:19.410Z,33.27
2018-11-23T23:07:48.046Z,29.77
2018-11-23T23:10:16.826Z,31.03
2018-11-23T23:12:45.402Z,30.90
2018-11-23T23:15:13.993Z,31.50
2018-11-23T23:17:43.183Z,32.10
2018-11-23T23:20:12.996Z,29.90
2018-11-23T23:22:41.514Z,31.30
2018-11-23T23:25:10.972Z,27.83
2018-11-23T23:27:39.547Z,29.70
2018-11-23T23:30:09.890Z,31.40
2018-11-23T23:32:38.738Z,30.57
2018-11-23T23:35:09.334Z,27.93
2018-11-23T23:37:38.024Z,29.17
2018-11-23T23:40:09.147Z,30.90
2018-11-23T23:42:37.810Z,30.60
2018-11-23T23:45:15.799Z,30.40
2018-11-23T23:47:44.379Z,32.30
2018-11-23T23:50:14.173Z,31.73
2018-11-23T23:52:42.714Z,31.23
2018-11-23T23:55:11.468Z,31.17
2018-11-23T23:57:41.088Z,32.30
